AirNav   Phillips 66 Aviation Fuel
 
 1579 users online  

SC72 Chandelle Airport
Greer, South Carolina, USA

GOING TO GREER?


FAA INFORMATION EFFECTIVE 26 APRIL 2018

Location

FAA Identifier: SC72
Lat/Long: 34-49-22.4350N / 082-08-53.3950W
34-49.373917N / 082-08.889917W
34.8228986 / -82.1481653
(estimated)
Elevation: 850 ft. / 259 m (estimated)
Variation: 04W (1985)
From city: 10 miles SE of GREER, SC
Time zone: UTC -4 (UTC -5 during Standard Time)
Zip code: 29651

Airport Operations

Airport use: Private use. Permission required prior to landing
Activation date: 09/1987
Control tower: no
ARTCC: ATLANTA CENTER
FSS: ANDERSON FLIGHT SERVICE STATION
Attendance: TUE-SAT 0800-1700
Wind indicator: yes
Segmented circle: no

Airport Communications

UNICOM: 122.8
WX ASOS at GSP (6 nm NW): 134.25 (864-879-0614)
WX ASOS at GMU (10 nm W): 127.075 (864-239-0014)
WX AWOS-3 at SPA (11 nm NE): 133.925 (864-587-2529)
WX AWOS-3 at GYH (12 nm W): 127.325 (864-277-5674)

Nearby radio navigation aids

VOR radial/distance  VOR name  Freq  Var
SPAr223/16.7SPARTANBURG VORTAC115.7002W
GRDr001/34.3GREENWOOD VORTAC115.5001W
SUGr172/35.5SUGARLOAF MOUNTAIN VORTAC112.2002W
ELWr052/39.7ELECTRIC CITY VORTAC108.6000E

 
NDB name  Hdg/Dist  Freq  Var  ID
FAIRMONT245/9.324805WFRT ..-. .-. -
JUDKY081/10.352105WGM --. --
UNION COUNTY294/26.332606WUOT ..- --- -
LAKE KEOWEE093/27.440804WLQK .-.. --.- -.-
BROAD RIVER157/31.337907WBRA -... .-. .-
CORONACA002/34.323907WGIW --. .. .--
FIRST RIVER232/37.341706WSLP ... .-.. .--.
CLEMSON081/37.525705WCEU -.-. . ..-
ENOREE328/39.827807WEOE . --- .

Airport Services

Runway Information

Runway 3/21

Dimensions: 3700 x 50 ft. / 1128 x 15 m
Surface: asphalt
Runway edge markings: PAINTED
RUNWAY 3  RUNWAY 21
Traffic pattern: leftleft
Obstructions: 36 ft. pline, marked, 450 ft. from runwaynone

Airport Ownership and Management from official FAA records

Ownership: Privately-owned
Owner: CHANDELLE RUNWAY, LLC
400 AIR PARK DRIVE
GREER, SC 29651
Phone 864-979-6337
Manager: JOHN R STEWART JR
235 CHANDELLE RIDGE DRIVE
WOODRUFF, SC 29388
Phone 864-979-6337

Airport Operational Statistics

Aircraft based on the field: 22
Single engine airplanes: 18
Gliders airplanes: 1
Ultralights: 3
    

Instrument Procedures

There are no published instrument procedures at SC72.

Some nearby airports with instrument procedures:

KGSP - Greenville Spartanburg International Airport (6 nm NW)
KGMU - Greenville Downtown Airport (10 nm W)
KSPA - Spartanburg Downtown Memorial Airport (11 nm NE)
KGYH - Donaldson Field Airport (12 nm W)
KLUX - Laurens County Airport (21 nm SE)
 
Loc | Ops | Rwys | IFR | FBO | Links
Com | Nav | Svcs | Stats | Notes

AirNav Hotels Sweepstakes
 
Area around SC72 (Chandelle Airport)
 
Road maps at: MapQuest Bing Google
 
Aerial photo
No photo
 
Sectional chart

 
Airport distance calculator
Flying to Chandelle Airport? Find the distance to fly.

From to SC72

Sunrise and sunset
Times for 22-May-2018
 Local
(UTC-4)
 Zulu
(UTC)
Morning civil twilight05:5309:53
Sunrise06:2210:22
Sunset20:2900:29
Evening civil twilight20:5700:57

Current date and time
Zulu (UTC)  22-May-2018 16:36:35
Local (UTC-4)  22-May-2018 12:36:35
 
METAR
KGSP 
6nm NW 
221553Z VRB04KT 10SM BKN023 25/19 A3016 RMK AO2 SLP204 T02500194
KGMU 
10nm W 
221601Z 17005KT 10SM FEW023 FEW029 26/19 A3017 RMK AO2 T02610194
KGYH 
12nm W 
221547Z 18006KT 10SM BKN020 BKN037 26/19 A3015
KSPA 
16nm NE 
221615Z AUTO 21003KT 10SM SCT020 25/18 A3016 RMK AO2
TAF
KGSP 
6nm NW 
221514Z 2215/2312 VRB02KT P6SM BKN025 BKN035 FM221600 21004KT P6SM VCTS FEW030 BKN045CB TEMPO 2218/2222 4SM TSRA OVC025CB FM230200 20004KT 6SM BR VCSH BKN050 FM230900 22004KT 6SM BR BKN017
KGMU 
10nm W 
221330Z 2214/2312 VRB02KT P6SM SCT011 BKN015 FM221600 21004KT P6SM VCTS BKN050CB TEMPO 2217/2221 4SM TSRA OVC025CB FM230200 20004KT 6SM BR VCSH BKN050 FM230900 22004KT 6SM BR BKN017
NOTAMs
Click for the latest NOTAMs
NOTAMs are issued by the DoD/FAA and will open in a separate window not controlled by AirNav.

 

 
 

Would you like to see your business listed on this page?

 If your business provides an interesting product or service to pilots, flight crews, aircraft, or users of the Chandelle Airport, you should consider listing it here.  To start the listing process, click on the button below
 
Add a business
 

Other Pages about Chandelle Airport

Update a link
 
Copyright © AirNav, LLC. All rights reserved. Privacy Policy  Contact